createdAt,value
2022-12-13T00:01:22.992Z,24.10
2022-12-13T00:03:52.164Z,23.60
2022-12-13T00:06:19.019Z,21.05
2022-12-13T00:08:45.992Z,25.95
2022-12-13T00:11:13.893Z,25.98
2022-12-13T00:13:42.112Z,28.58
2022-12-13T00:16:12.485Z,22.80
2022-12-13T00:18:39.582Z,27.27
2022-12-13T00:21:08.113Z,26.85
2022-12-13T00:23:35.739Z,28.65
2022-12-13T00:26:17.404Z,22.77
2022-12-13T00:28:44.571Z,23.42
2022-12-13T00:31:51.815Z,24.40
2022-12-13T00:33:59.129Z,22.90
2022-12-13T00:36:26.037Z,26.55
2022-12-13T00:39:00.431Z,27.35
2022-12-13T00:41:33.560Z,26.42
2022-12-13T00:44:01.065Z,28.55
2022-12-13T00:46:28.529Z,24.10
2022-12-13T00:48:57.801Z,25.05
2022-12-13T00:51:26.674Z,26.20
2022-12-13T00:53:53.521Z,25.75
2022-12-13T00:56:23.380Z,23.67
2022-12-13T00:58:52.263Z,26.70
2022-12-13T01:01:25.270Z,29.58
2022-12-13T01:03:54.594Z,25.63
2022-12-13T01:06:35.139Z,32.45
2022-12-13T01:09:02.567Z,26.23
2022-12-13T01:11:29.235Z,28.05
2022-12-13T01:13:55.902Z,25.98
2022-12-13T01:16:22.518Z,25.48
2022-12-13T01:18:49.226Z,28.55
2022-12-13T01:21:18.932Z,26.45
2022-12-13T01:23:45.873Z,30.77
2022-12-13T01:26:15.867Z,24.60
2022-12-13T01:28:43.326Z,27.27
2022-12-13T01:31:12.852Z,28.48
2022-12-13T01:33:40.277Z,29.25
2022-12-13T01:36:10.068Z,29.63
2022-12-13T01:38:37.998Z,26.92
2022-12-13T01:41:08.895Z,26.80
2022-12-13T01:43:44.751Z,29.00
2022-12-13T01:46:12.292Z,25.83
2022-12-13T01:48:50.313Z,26.92
2022-12-13T01:51:19.728Z,30.88
2022-12-13T01:53:49.081Z,26.17
2022-12-13T01:56:26.100Z,25.05
2022-12-13T01:58:54.966Z,26.70
2022-12-13T02:01:22.245Z,25.63
2022-12-13T02:03:48.891Z,26.75
2022-12-13T02:06:39.765Z,26.70
2022-12-13T02:09:07.825Z,24.60
2022-12-13T02:11:38.001Z,30.08
2022-12-13T02:14:05.516Z,27.75
2022-12-13T02:16:37.840Z,27.17
2022-12-13T02:19:30.931Z,26.30
2022-12-13T02:22:05.693Z,29.40
2022-12-13T02:24:51.057Z,27.88
2022-12-13T02:28:00.829Z,25.80
2022-12-13T02:30:37.163Z,28.63
2022-12-13T02:33:28.808Z,28.90
2022-12-13T02:36:08.702Z,27.75
2022-12-13T02:38:53.485Z,29.88
2022-12-13T02:41:49.988Z,31.38
2022-12-13T02:44:41.935Z,27.15
2022-12-13T02:47:21.715Z,28.15
2022-12-13T02:49:52.304Z,29.52
2022-12-13T02:52:22.903Z,31.88
2022-12-13T02:54:49.730Z,30.05
2022-12-13T02:57:37.137Z,27.60
2022-12-13T03:00:21.263Z,31.33
2022-12-13T03:03:12.533Z,29.85
2022-12-13T03:06:09.721Z,29.10
2022-12-13T03:08:42.351Z,36.35
2022-12-13T03:11:13.591Z,28.85
2022-12-13T03:14:04.940Z,31.17
2022-12-13T03:16:36.537Z,28.77
2022-12-13T03:19:06.725Z,30.70
2022-12-13T03:21:47.249Z,29.98
2022-12-13T03:24:17.256Z,29.77
2022-12-13T03:26:44.082Z,30.10
2022-12-13T03:29:10.744Z,28.55
2022-12-13T03:31:37.388Z,30.05
2022-12-13T03:34:03.999Z,35.30
2022-12-13T03:36:30.645Z,32.55
2022-12-13T03:38:57.333Z,28.90
2022-12-13T03:41:31.438Z,31.48
2022-12-13T03:44:04.848Z,30.85
2022-12-13T03:46:32.160Z,32.90
2022-12-13T03:48:58.802Z,29.75
2022-12-13T03:51:25.550Z,30.83
2022-12-13T03:53:52.118Z,35.72
2022-12-13T03:56:18.753Z,30.27
2022-12-13T03:58:45.445Z,30.88
2022-12-13T04:01:15.366Z,29.45
2022-12-13T04:03:43.952Z,31.00
2022-12-13T04:06:11.224Z,27.85
2022-12-13T04:08:38.799Z,29.38
2022-12-13T04:11:24.529Z,27.77
2022-12-13T04:13:52.335Z,30.90
2022-12-13T04:16:19.430Z,28.58
2022-12-13T04:18:46.021Z,27.80
2022-12-13T04:21:12.659Z,27.58
2022-12-13T04:23:39.292Z,26.38
2022-12-13T04:26:06.235Z,27.02
2022-12-13T04:28:32.884Z,27.13
2022-12-13T04:30:59.458Z,26.40
2022-12-13T04:33:26.084Z,25.55
2022-12-13T04:35:52.766Z,27.10
2022-12-13T04:38:19.995Z,23.02
2022-12-13T04:40:46.683Z,24.50
2022-12-13T04:43:13.287Z,24.88
2022-12-13T04:45:39.899Z,25.33
2022-12-13T04:48:06.634Z,28.25
2022-12-13T04:50:33.663Z,27.90
2022-12-13T04:53:00.387Z,25.85
2022-12-13T04:55:27.041Z,31.60
2022-12-13T04:57:53.718Z,28.90
2022-12-13T05:00:22.298Z,27.02
2022-12-13T05:02:49.110Z,25.63
2022-12-13T05:05:16.008Z,29.92
2022-12-13T05:07:43.157Z,25.85
2022-12-13T05:10:11.258Z,25.20
2022-12-13T05:12:37.891Z,30.52
2022-12-13T05:15:05.352Z,23.55
2022-12-13T05:17:32.028Z,27.13
2022-12-13T05:19:58.608Z,24.20
2022-12-13T05:22:25.440Z,25.38
2022-12-13T05:24:52.071Z,28.35
2022-12-13T05:27:23.697Z,27.00
2022-12-13T05:30:02.375Z,24.80
2022-12-13T05:32:43.142Z,25.13
2022-12-13T05:35:22.590Z,22.13
2022-12-13T05:37:55.054Z,28.98
2022-12-13T05:40:23.127Z,30.50
2022-12-13T05:42:50.118Z,24.95
2022-12-13T05:45:18.477Z,27.52
2022-12-13T05:47:45.963Z,27.83
2022-12-13T05:50:14.046Z,23.75
2022-12-13T05:52:40.679Z,24.20
2022-12-13T05:55:07.620Z,25.23
2022-12-13T05:57:34.319Z,28.95
2022-12-13T06:00:01.016Z,23.23
2022-12-13T06:02:27.878Z,22.52
2022-12-13T06:04:54.733Z,30.70
2022-12-13T06:07:21.281Z,27.15
2022-12-13T06:09:47.846Z,23.85
2022-12-13T06:12:30.967Z,22.10
2022-12-13T06:15:01.109Z,21.92
2022-12-13T06:17:45.413Z,20.67
2022-12-13T06:20:24.237Z,25.65
2022-12-13T06:22:51.941Z,23.73
2022-12-13T06:25:31.064Z,29.52
2022-12-13T06:28:00.753Z,24.95
2022-12-13T06:30:28.502Z,29.77
2022-12-13T06:32:55.255Z,28.92
2022-12-13T06:35:28.335Z,25.33
2022-12-13T06:37:55.828Z,30.73
2022-12-13T06:40:27.819Z,26.13
2022-12-13T06:42:54.433Z,24.85
2022-12-13T06:45:21.019Z,27.75
2022-12-13T06:47:47.630Z,28.02
2022-12-13T06:50:15.021Z,23.98
2022-12-13T06:52:41.590Z,25.77
2022-12-13T06:55:08.686Z,25.00
2022-12-13T06:57:35.358Z,27.65
2022-12-13T07:00:03.502Z,23.65
2022-12-13T07:02:30.407Z,29.80
2022-12-13T07:04:57.278Z,26.80
2022-12-13T07:07:25.828Z,29.38
2022-12-13T07:09:52.873Z,26.13
2022-12-13T07:12:20.973Z,26.35
2022-12-13T07:14:47.769Z,24.70
2022-12-13T07:17:33.924Z,25.17
2022-12-13T07:20:07.566Z,24.88
2022-12-13T07:22:36.869Z,23.88
2022-12-13T07:25:05.998Z,26.55
2022-12-13T07:27:34.373Z,30.30
2022-12-13T07:30:01.159Z,25.52
2022-12-13T07:32:28.196Z,32.42
2022-12-13T07:34:54.774Z,31.73
2022-12-13T07:37:29.573Z,32.97
2022-12-13T07:40:03.436Z,30.38
2022-12-13T07:42:31.238Z,32.28
2022-12-13T07:44:57.887Z,32.05
2022-12-13T07:47:29.811Z,33.22
2022-12-13T07:49:56.503Z,26.40
2022-12-13T07:52:24.332Z,30.02
2022-12-13T07:54:50.967Z,30.70
2022-12-13T07:57:17.615Z,29.63
2022-12-13T07:59:44.217Z,27.02
2022-12-13T08:02:13.306Z,31.23
2022-12-13T08:04:41.851Z,31.60
2022-12-13T08:07:09.744Z,28.50
2022-12-13T08:09:36.818Z,29.75
2022-12-13T08:12:05.178Z,28.30
2022-12-13T08:14:32.027Z,38.65
2022-12-13T08:16:58.702Z,32.65
2022-12-13T08:19:25.331Z,30.50
2022-12-13T08:21:58.272Z,29.50
2022-12-13T08:24:30.274Z,30.60
2022-12-13T08:27:02.006Z,31.83
2022-12-13T08:29:34.063Z,28.50
2022-12-13T08:32:10.456Z,32.97
2022-12-13T08:34:37.658Z,33.35
2022-12-13T08:37:05.054Z,31.23
2022-12-13T08:39:36.695Z,30.92
2022-12-13T08:42:15.214Z,29.67
2022-12-13T08:44:48.382Z,29.70
2022-12-13T08:47:22.982Z,32.70
2022-12-13T08:49:55.779Z,32.97
2022-12-13T08:52:29.502Z,30.05
2022-12-13T08:54:56.207Z,25.92
2022-12-13T08:57:22.804Z,26.58
2022-12-13T08:59:49.435Z,32.90
2022-12-13T09:02:16.657Z,29.20
2022-12-13T09:04:43.658Z,28.60
2022-12-13T09:07:10.242Z,28.52
2022-12-13T09:09:37.420Z,29.63
2022-12-13T09:12:10.659Z,27.25
2022-12-13T09:14:45.370Z,26.33
2022-12-13T09:17:24.138Z,27.20
2022-12-13T09:19:51.248Z,26.60
2022-12-13T09:22:32.812Z,22.58
2022-12-13T09:25:02.857Z,25.98
2022-12-13T09:27:30.903Z,24.70
2022-12-13T09:30:08.042Z,27.90
2022-12-13T09:32:34.660Z,27.15
2022-12-13T09:35:01.257Z,24.40
2022-12-13T09:37:29.624Z,26.40
2022-12-13T09:39:56.231Z,26.00
2022-12-13T09:42:30.458Z,24.88
2022-12-13T09:45:06.101Z,25.20
2022-12-13T09:47:49.739Z,29.80
2022-12-13T09:50:24.933Z,23.15
2022-12-13T09:52:52.422Z,29.88
2022-12-13T09:55:38.586Z,22.90
2022-12-13T09:58:22.399Z,23.90
2022-12-13T10:00:53.186Z,25.15
2022-12-13T10:03:22.495Z,24.98
2022-12-13T10:05:58.972Z,30.48
2022-12-13T10:08:40.489Z,24.30
2022-12-13T10:11:07.080Z,26.00
2022-12-13T10:13:55.038Z,28.23
2022-12-13T10:16:37.639Z,31.13
2022-12-13T10:19:29.268Z,28.37
2022-12-13T10:22:01.212Z,24.90
2022-12-13T10:24:46.725Z,27.65
2022-12-13T10:27:16.832Z,26.85
2022-12-13T10:30:07.597Z,25.88
2022-12-13T10:33:03.686Z,31.80
2022-12-13T10:35:41.501Z,33.85
2022-12-13T10:38:08.214Z,31.70
2022-12-13T10:40:37.502Z,27.75
2022-12-13T10:43:26.265Z,27.17
2022-12-13T10:45:56.615Z,25.30
2022-12-13T10:48:45.334Z,33.90
2022-12-13T10:51:18.661Z,25.08
2022-12-13T10:53:58.246Z,27.20
2022-12-13T10:56:36.316Z,28.08
2022-12-13T10:59:25.532Z,28.70
2022-12-13T11:01:52.622Z,25.00
2022-12-13T11:04:29.755Z,25.80
2022-12-13T11:06:59.663Z,24.25
2022-12-13T11:09:38.893Z,25.25
2022-12-13T11:12:14.474Z,24.27
2022-12-13T11:15:08.926Z,23.20
2022-12-13T11:17:45.546Z,26.00
2022-12-13T11:20:29.997Z,26.05
2022-12-13T11:23:19.506Z,28.30
2022-12-13T11:25:46.317Z,30.85
2022-12-13T11:28:50.485Z,30.27
2022-12-13T11:31:55.867Z,28.00
2022-12-13T11:34:40.705Z,31.42
2022-12-13T11:37:49.243Z,24.88
2022-12-13T11:40:32.208Z,30.27
2022-12-13T11:43:12.032Z,31.77
2022-12-13T11:45:54.709Z,29.35
2022-12-13T11:48:39.773Z,28.08
2022-12-13T11:51:09.134Z,26.35
2022-12-13T11:53:49.704Z,25.90
2022-12-13T11:56:25.785Z,29.83
2022-12-13T11:59:27.499Z,29.75
2022-12-13T12:02:18.116Z,26.73
2022-12-13T12:04:53.608Z,27.40
2022-12-13T12:08:12.780Z,32.17
2022-12-13T12:10:49.398Z,25.83
2022-12-13T12:13:24.861Z,28.20
2022-12-13T12:16:18.078Z,29.23
2022-12-13T12:18:44.813Z,27.77
2022-12-13T12:21:20.328Z,27.75
2022-12-13T12:24:10.159Z,22.33
2022-12-13T12:27:11.115Z,28.35
2022-12-13T12:29:50.631Z,24.48
2022-12-13T12:32:42.588Z,23.92
2022-12-13T12:35:17.122Z,27.58
2022-12-13T12:37:55.314Z,25.83
2022-12-13T12:40:52.219Z,28.00
2022-12-13T12:43:21.848Z,24.58
2022-12-13T12:46:08.390Z,28.55
2022-12-13T12:49:06.286Z,29.85
2022-12-13T12:51:38.852Z,36.70
2022-12-13T12:54:18.178Z,33.72
2022-12-13T12:56:59.394Z,28.45
2022-12-13T12:59:40.039Z,28.98
2022-12-13T13:02:28.820Z,32.20
2022-12-13T13:05:02.961Z,30.15
2022-12-13T13:07:39.600Z,28.40
2022-12-13T13:10:16.456Z,35.00
2022-12-13T13:12:53.411Z,31.23
2022-12-13T13:15:39.397Z,29.98
2022-12-13T13:18:45.732Z,28.58
2022-12-13T13:21:34.704Z,30.75
2022-12-13T13:24:01.306Z,33.50
2022-12-13T13:26:37.975Z,31.55
2022-12-13T13:29:27.271Z,33.15
2022-12-13T13:32:06.923Z,29.95
2022-12-13T13:34:40.636Z,28.45
2022-12-13T13:40:08.395Z,26.25
2022-12-13T13:42:55.078Z,26.65
2022-12-13T13:45:27.446Z,23.77
2022-12-13T13:48:14.509Z,30.15
2022-12-13T13:51:15.759Z,29.40
2022-12-13T13:54:20.793Z,25.63
2022-12-13T13:57:12.135Z,27.98
2022-12-13T14:00:17.190Z,33.17
2022-12-13T14:03:35.253Z,34.55
2022-12-13T14:06:20.870Z,29.67
2022-12-13T14:09:04.498Z,26.33
2022-12-13T14:11:43.153Z,29.80
2022-12-13T14:14:30.958Z,28.25
2022-12-13T14:17:46.520Z,27.20
2022-12-13T14:20:31.487Z,27.17
2022-12-13T14:23:03.909Z,30.83
2022-12-13T14:25:40.259Z,30.73
2022-12-13T14:28:52.971Z,27.15
2022-12-13T14:31:31.301Z,32.45
2022-12-13T14:34:00.593Z,31.75
2022-12-13T14:36:32.144Z,33.25
2022-12-13T14:39:24.663Z,28.75
2022-12-13T14:41:57.023Z,29.83
2022-12-13T14:44:28.167Z,32.08
2022-12-13T14:47:02.988Z,30.77
2022-12-13T14:49:32.500Z,31.48
2022-12-13T14:52:27.571Z,30.85
2022-12-13T14:55:04.633Z,34.67
2022-12-13T14:57:33.120Z,32.42
2022-12-13T15:00:01.797Z,32.13
2022-12-13T15:02:32.793Z,37.80
2022-12-13T15:05:01.681Z,33.28
2022-12-13T15:07:41.568Z,35.15
2022-12-13T15:10:40.071Z,38.20
2022-12-13T15:13:07.144Z,32.58
2022-12-13T15:15:37.855Z,37.50
2022-12-13T15:18:20.445Z,34.45
2022-12-13T15:20:50.115Z,32.83
2022-12-13T15:23:22.838Z,33.20
2022-12-13T15:26:28.478Z,28.00
2022-12-13T15:29:09.967Z,35.95
2022-12-13T15:31:38.352Z,32.78
2022-12-13T15:34:28.518Z,37.75
2022-12-13T15:37:28.453Z,42.40
2022-12-13T15:39:59.892Z,33.97
2022-12-13T15:42:32.899Z,30.95
2022-12-13T15:45:06.014Z,37.30
2022-12-13T15:47:33.480Z,41.80
2022-12-13T15:50:02.735Z,36.70
2022-12-13T15:52:32.801Z,37.80
2022-12-13T15:55:07.655Z,42.40
2022-12-13T15:57:36.798Z,35.20
2022-12-13T16:00:16.810Z,36.15
2022-12-13T16:02:53.758Z,36.10
2022-12-13T16:05:38.620Z,36.35
2022-12-13T16:08:13.892Z,31.90
2022-12-13T16:10:47.136Z,32.10
2022-12-13T16:13:26.352Z,38.53
2022-12-13T16:16:00.278Z,34.40
2022-12-13T16:18:44.902Z,34.38
2022-12-13T16:21:11.700Z,37.72
2022-12-13T16:23:38.345Z,33.38
2022-12-13T16:26:09.037Z,37.33
2022-12-13T16:28:36.294Z,33.70
2022-12-13T16:31:23.787Z,37.38
2022-12-13T16:33:50.510Z,33.50
2022-12-13T16:36:17.875Z,38.70
2022-12-13T16:38:44.515Z,37.83
2022-12-13T16:41:11.274Z,32.30
2022-12-13T16:43:44.705Z,33.22
2022-12-13T16:48:58.848Z,35.20
2022-12-13T16:51:25.540Z,41.10
2022-12-13T16:53:52.130Z,32.45
2022-12-13T16:56:21.677Z,33.70
2022-12-13T16:58:50.566Z,36.00
2022-12-13T17:01:20.255Z,32.60
2022-12-13T17:03:47.493Z,36.70
2022-12-13T17:06:16.706Z,34.67
2022-12-13T17:08:43.324Z,37.40
2022-12-13T17:11:14.681Z,36.67
2022-12-13T17:13:44.635Z,36.67
2022-12-13T17:16:11.388Z,32.80
2022-12-13T17:18:41.798Z,33.25
2022-12-13T17:21:09.513Z,38.42
2022-12-13T17:23:36.453Z,36.47
2022-12-13T17:26:07.512Z,36.92
2022-12-13T17:28:34.364Z,39.85
2022-12-13T17:31:13.283Z,37.00
2022-12-13T17:33:40.851Z,38.03
2022-12-13T17:36:10.071Z,39.72
2022-12-13T17:38:37.540Z,38.40
2022-12-13T17:41:04.382Z,41.55
2022-12-13T17:43:34.939Z,38.83
2022-12-13T17:46:08.291Z,37.83
2022-12-13T17:48:40.219Z,38.28
2022-12-13T17:51:08.710Z,37.67
2022-12-13T17:53:35.938Z,38.95
2022-12-13T17:56:05.758Z,38.17
2022-12-13T17:58:32.512Z,41.92
2022-12-13T18:00:59.670Z,40.97
2022-12-13T18:03:26.751Z,38.38
2022-12-13T18:05:59.857Z,42.30
2022-12-13T18:08:27.502Z,31.95
2022-12-13T18:11:30.758Z,36.67
2022-12-13T18:13:46.306Z,41.60
2022-12-13T18:16:15.467Z,40.35
2022-12-13T18:18:42.703Z,39.85
2022-12-13T18:21:21.741Z,39.33
2022-12-13T18:23:54.962Z,37.42
2022-12-13T18:26:23.144Z,39.58
2022-12-13T18:28:49.755Z,36.05
2022-12-13T18:31:22.663Z,40.60
2022-12-13T18:33:50.516Z,42.17
2022-12-13T18:36:17.945Z,43.08
2022-12-13T18:38:44.604Z,37.17
2022-12-13T18:41:20.128Z,39.28
2022-12-13T18:43:47.528Z,36.53
2022-12-13T18:46:15.632Z,39.67
2022-12-13T18:48:42.355Z,38.20
2022-12-13T18:51:10.314Z,32.08
2022-12-13T18:53:38.222Z,36.83
2022-12-13T18:56:18.308Z,33.58
2022-12-13T18:58:47.971Z,38.58
2022-12-13T19:01:15.886Z,34.22
2022-12-13T19:03:44.953Z,32.80
2022-12-13T19:06:19.453Z,33.10
2022-12-13T19:08:51.450Z,36.17
2022-12-13T19:11:19.150Z,33.08
2022-12-13T19:13:46.325Z,32.35
2022-12-13T19:16:15.903Z,36.03
2022-12-13T19:18:42.693Z,32.55
2022-12-13T19:21:12.974Z,35.67
2022-12-13T19:23:40.976Z,32.88
2022-12-13T19:26:09.659Z,31.70
2022-12-13T19:28:36.566Z,30.55
2022-12-13T19:31:04.838Z,36.13
2022-12-13T19:33:31.784Z,32.67
2022-12-13T19:35:58.676Z,34.45
2022-12-13T19:38:25.317Z,30.70
2022-12-13T19:40:51.962Z,31.77
2022-12-13T19:43:20.657Z,28.73
2022-12-13T19:45:47.765Z,31.25
2022-12-13T19:48:14.745Z,30.15
2022-12-13T19:50:42.091Z,29.88
2022-12-13T19:53:08.880Z,29.50
2022-12-13T19:55:35.529Z,30.83
2022-12-13T19:58:02.440Z,27.42
2022-12-13T20:00:29.119Z,27.20
2022-12-13T20:02:56.204Z,29.42
2022-12-13T20:05:22.862Z,27.83
2022-12-13T20:07:51.042Z,29.85
2022-12-13T20:10:17.702Z,28.65
2022-12-13T20:12:44.291Z,31.60
2022-12-13T20:15:11.044Z,27.77
2022-12-13T20:17:37.676Z,27.38
2022-12-13T20:20:05.234Z,28.80
2022-12-13T20:22:33.295Z,27.05
2022-12-13T20:25:00.073Z,31.88
2022-12-13T20:27:26.972Z,28.15
2022-12-13T20:29:53.760Z,26.70
2022-12-13T20:32:21.274Z,28.27
2022-12-13T20:34:53.183Z,33.70
2022-12-13T20:37:22.082Z,30.35
2022-12-13T20:39:49.111Z,32.90
2022-12-13T20:42:15.759Z,27.67
2022-12-13T20:44:42.393Z,27.88
2022-12-13T20:47:09.190Z,28.25
2022-12-13T20:49:35.809Z,30.58
2022-12-13T20:52:02.758Z,33.00
2022-12-13T20:54:29.421Z,27.48
2022-12-13T20:56:58.088Z,28.25
2022-12-13T20:59:24.694Z,30.83
2022-12-13T21:01:51.342Z,28.70
2022-12-13T21:04:18.072Z,27.35
2022-12-13T21:06:44.668Z,27.77
2022-12-13T21:09:11.833Z,29.85
2022-12-13T21:11:42.712Z,28.20
2022-12-13T21:14:27.314Z,26.10
2022-12-13T21:16:55.288Z,29.05
2022-12-13T21:19:24.439Z,26.15
2022-12-13T21:21:51.855Z,28.52
2022-12-13T21:24:19.974Z,26.45
2022-12-13T21:26:47.400Z,29.48
2022-12-13T21:29:16.044Z,27.75
2022-12-13T21:31:44.742Z,30.25
2022-12-13T21:34:16.904Z,26.95
2022-12-13T21:36:45.738Z,26.30
2022-12-13T21:39:14.104Z,27.30
2022-12-13T21:41:41.798Z,29.77
2022-12-13T21:44:10.924Z,25.98
2022-12-13T21:49:25.182Z,30.83
2022-12-13T21:51:51.789Z,29.75
2022-12-13T21:54:18.648Z,29.55
2022-12-13T21:57:04.245Z,31.65
2022-12-13T21:59:31.658Z,30.25
2022-12-13T22:02:11.955Z,30.35
2022-12-13T22:04:41.016Z,30.65
2022-12-13T22:07:08.739Z,26.98
2022-12-13T22:09:36.418Z,29.08
2022-12-13T22:12:16.802Z,29.83
2022-12-13T22:14:43.522Z,27.60
2022-12-13T22:17:10.216Z,30.17
2022-12-13T22:19:36.834Z,27.35
2022-12-13T22:22:03.510Z,29.13
2022-12-13T22:24:30.113Z,28.95
2022-12-13T22:26:56.738Z,30.92
2022-12-13T22:29:23.309Z,30.02
2022-12-13T22:31:49.927Z,33.47
2022-12-13T22:34:16.827Z,34.30
2022-12-13T22:36:43.448Z,30.95
2022-12-13T22:39:18.173Z,30.17
2022-12-13T22:41:45.842Z,26.13
2022-12-13T22:44:13.928Z,28.65
2022-12-13T22:46:41.061Z,30.25
2022-12-13T22:49:08.327Z,30.73
2022-12-13T22:51:35.403Z,27.58
2022-12-13T22:54:02.281Z,26.98
2022-12-13T22:56:28.949Z,27.88
2022-12-13T22:58:57.451Z,30.40
2022-12-13T23:01:26.771Z,29.35
2022-12-13T23:03:53.589Z,27.80
2022-12-13T23:06:23.346Z,29.80
2022-12-13T23:08:52.717Z,29.25
2022-12-13T23:11:39.098Z,28.48
2022-12-13T23:14:08.855Z,30.42
2022-12-13T23:16:36.699Z,33.50
2022-12-13T23:19:39.160Z,36.03
2022-12-13T23:21:52.677Z,30.88
2022-12-13T23:24:20.093Z,31.20
2022-12-13T23:26:46.919Z,30.88
2022-12-13T23:29:13.580Z,28.60
2022-12-13T23:31:42.347Z,29.77
2022-12-13T23:34:15.339Z,28.63
2022-12-13T23:36:42.047Z,28.73
2022-12-13T23:39:09.213Z,29.83
2022-12-13T23:41:36.231Z,29.77
2022-12-13T23:44:04.237Z,32.10
2022-12-13T23:46:34.694Z,29.98
2022-12-13T23:49:04.436Z,27.75
2022-12-13T23:51:31.246Z,34.92
2022-12-13T23:53:57.822Z,29.77
2022-12-13T23:56:24.712Z,29.52
2022-12-13T23:58:51.408Z,30.02
